sensor_id;sensor_type;location;lat;lon;timestamp;P1;durP1;ratioP1;P2;durP2;ratioP2
57225;SDS011;43082;43.568;22.256;2022-12-08T00:00:45;28.30;;;21.58;;
57225;SDS011;43082;43.568;22.256;2022-12-08T00:03:10;35.20;;;26.10;;
57225;SDS011;43082;43.568;22.256;2022-12-08T00:05:36;28.88;;;21.83;;
57225;SDS011;43082;43.568;22.256;2022-12-08T00:08:20;29.27;;;19.83;;
57225;SDS011;43082;43.568;22.256;2022-12-08T00:11:04;26.45;;;19.30;;
57225;SDS011;43082;43.568;22.256;2022-12-08T00:13:30;35.95;;;25.83;;
57225;SDS011;43082;43.568;22.256;2022-12-08T00:15:59;40.72;;;28.25;;
57225;SDS011;43082;43.568;22.256;2022-12-08T00:18:24;34.15;;;25.40;;
57225;SDS011;43082;43.568;22.256;2022-12-08T00:20:56;37.00;;;26.58;;
57225;SDS011;43082;43.568;22.256;2022-12-08T00:23:23;30.30;;;20.75;;
57225;SDS011;43082;43.568;22.256;2022-12-08T00:25:48;24.00;;;17.30;;
57225;SDS011;43082;43.568;22.256;2022-12-08T00:28:14;28.33;;;20.27;;
57225;SDS011;43082;43.568;22.256;2022-12-08T00:30:40;26.92;;;18.30;;
57225;SDS011;43082;43.568;22.256;2022-12-08T00:33:06;42.22;;;31.60;;
57225;SDS011;43082;43.568;22.256;2022-12-08T00:35:31;45.92;;;34.28;;
57225;SDS011;43082;43.568;22.256;2022-12-08T00:37:56;50.63;;;34.75;;
57225;SDS011;43082;43.568;22.256;2022-12-08T00:40:22;48.28;;;33.28;;
57225;SDS011;43082;43.568;22.256;2022-12-08T00:42:47;47.20;;;32.63;;
57225;SDS011;43082;43.568;22.256;2022-12-08T00:45:13;47.10;;;33.55;;
57225;SDS011;43082;43.568;22.256;2022-12-08T00:47:38;37.30;;;26.85;;
57225;SDS011;43082;43.568;22.256;2022-12-08T00:50:04;38.67;;;26.73;;
57225;SDS011;43082;43.568;22.256;2022-12-08T00:52:30;45.35;;;31.90;;
57225;SDS011;43082;43.568;22.256;2022-12-08T00:54:55;43.05;;;30.48;;
57225;SDS011;43082;43.568;22.256;2022-12-08T00:57:21;45.78;;;32.92;;
57225;SDS011;43082;43.568;22.256;2022-12-08T00:59:46;46.53;;;33.17;;
57225;SDS011;43082;43.568;22.256;2022-12-08T01:02:11;57.92;;;36.75;;
57225;SDS011;43082;43.568;22.256;2022-12-08T01:04:37;57.80;;;39.38;;
57225;SDS011;43082;43.568;22.256;2022-12-08T01:07:02;63.72;;;42.13;;
57225;SDS011;43082;43.568;22.256;2022-12-08T01:09:28;60.28;;;39.58;;
57225;SDS011;43082;43.568;22.256;2022-12-08T01:11:53;53.03;;;35.72;;
57225;SDS011;43082;43.568;22.256;2022-12-08T01:14:19;45.63;;;31.80;;
57225;SDS011;43082;43.568;22.256;2022-12-08T01:16:45;45.83;;;33.80;;
57225;SDS011;43082;43.568;22.256;2022-12-08T01:19:11;40.72;;;30.25;;
57225;SDS011;43082;43.568;22.256;2022-12-08T01:21:38;44.47;;;31.73;;
57225;SDS011;43082;43.568;22.256;2022-12-08T01:24:04;47.58;;;34.80;;
57225;SDS011;43082;43.568;22.256;2022-12-08T01:26:30;41.50;;;30.85;;
57225;SDS011;43082;43.568;22.256;2022-12-08T01:28:55;38.58;;;27.48;;
57225;SDS011;43082;43.568;22.256;2022-12-08T01:31:21;40.38;;;29.00;;
57225;SDS011;43082;43.568;22.256;2022-12-08T01:33:47;44.85;;;30.65;;
57225;SDS011;43082;43.568;22.256;2022-12-08T01:38:47;40.55;;;30.25;;
57225;SDS011;43082;43.568;22.256;2022-12-08T01:41:17;37.47;;;27.70;;
57225;SDS011;43082;43.568;22.256;2022-12-08T01:46:33;25.13;;;17.92;;
57225;SDS011;43082;43.568;22.256;2022-12-08T01:49:07;35.38;;;25.70;;
57225;SDS011;43082;43.568;22.256;2022-12-08T01:51:53;34.13;;;25.58;;
57225;SDS011;43082;43.568;22.256;2022-12-08T01:54:21;31.67;;;22.13;;
57225;SDS011;43082;43.568;22.256;2022-12-08T01:59:25;32.13;;;23.58;;
57225;SDS011;43082;43.568;22.256;2022-12-08T02:01:51;30.25;;;22.48;;
57225;SDS011;43082;43.568;22.256;2022-12-08T02:04:16;27.15;;;19.98;;
57225;SDS011;43082;43.568;22.256;2022-12-08T02:06:42;27.05;;;20.58;;
57225;SDS011;43082;43.568;22.256;2022-12-08T02:09:08;29.48;;;21.38;;
57225;SDS011;43082;43.568;22.256;2022-12-08T02:11:33;32.47;;;23.20;;
57225;SDS011;43082;43.568;22.256;2022-12-08T02:13:59;34.45;;;25.27;;
57225;SDS011;43082;43.568;22.256;2022-12-08T02:16:48;34.97;;;25.65;;
57225;SDS011;43082;43.568;22.256;2022-12-08T02:29:51;32.78;;;22.90;;
57225;SDS011;43082;43.568;22.256;2022-12-08T02:32:44;36.05;;;25.48;;
57225;SDS011;43082;43.568;22.256;2022-12-08T02:35:17;35.83;;;24.90;;
57225;SDS011;43082;43.568;22.256;2022-12-08T02:40:38;41.10;;;29.58;;
57225;SDS011;43082;43.568;22.256;2022-12-08T02:43:28;40.22;;;29.13;;
57225;SDS011;43082;43.568;22.256;2022-12-08T02:46:01;43.13;;;31.30;;
57225;SDS011;43082;43.568;22.256;2022-12-08T02:48:29;50.90;;;35.65;;
57225;SDS011;43082;43.568;22.256;2022-12-08T02:50:57;92.93;;;56.28;;
57225;SDS011;43082;43.568;22.256;2022-12-08T02:53:22;48.38;;;34.78;;
57225;SDS011;43082;43.568;22.256;2022-12-08T03:01:09;42.13;;;29.45;;
57225;SDS011;43082;43.568;22.256;2022-12-08T03:03:53;39.75;;;28.38;;
57225;SDS011;43082;43.568;22.256;2022-12-08T03:06:29;41.55;;;29.55;;
57225;SDS011;43082;43.568;22.256;2022-12-08T03:09:03;38.90;;;28.30;;
57225;SDS011;43082;43.568;22.256;2022-12-08T03:11:39;40.17;;;28.70;;
57225;SDS011;43082;43.568;22.256;2022-12-08T03:14:19;42.67;;;29.75;;
57225;SDS011;43082;43.568;22.256;2022-12-08T03:16:46;40.75;;;30.05;;
57225;SDS011;43082;43.568;22.256;2022-12-08T03:21:39;48.85;;;35.65;;
57225;SDS011;43082;43.568;22.256;2022-12-08T03:24:06;52.80;;;36.67;;
57225;SDS011;43082;43.568;22.256;2022-12-08T03:29:00;55.67;;;39.30;;
57225;SDS011;43082;43.568;22.256;2022-12-08T03:31:26;54.67;;;39.85;;
57225;SDS011;43082;43.568;22.256;2022-12-08T03:33:55;56.30;;;39.50;;
57225;SDS011;43082;43.568;22.256;2022-12-08T03:36:21;53.75;;;37.10;;
57225;SDS011;43082;43.568;22.256;2022-12-08T03:38:49;46.38;;;32.60;;
57225;SDS011;43082;43.568;22.256;2022-12-08T03:41:17;49.88;;;35.25;;
57225;SDS011;43082;43.568;22.256;2022-12-08T03:43:42;43.58;;;31.13;;
57225;SDS011;43082;43.568;22.256;2022-12-08T03:46:11;40.28;;;29.40;;
57225;SDS011;43082;43.568;22.256;2022-12-08T03:48:37;32.65;;;23.45;;
57225;SDS011;43082;43.568;22.256;2022-12-08T03:51:02;34.08;;;24.13;;
57225;SDS011;43082;43.568;22.256;2022-12-08T03:53:28;33.45;;;24.05;;
57225;SDS011;43082;43.568;22.256;2022-12-08T03:55:53;32.15;;;23.38;;
57225;SDS011;43082;43.568;22.256;2022-12-08T03:58:19;34.60;;;24.05;;
57225;SDS011;43082;43.568;22.256;2022-12-08T04:00:44;35.60;;;24.65;;
57225;SDS011;43082;43.568;22.256;2022-12-08T04:03:10;37.58;;;27.13;;
57225;SDS011;43082;43.568;22.256;2022-12-08T04:05:35;35.90;;;25.58;;
57225;SDS011;43082;43.568;22.256;2022-12-08T04:08:00;33.47;;;24.65;;
57225;SDS011;43082;43.568;22.256;2022-12-08T04:10:26;33.30;;;23.67;;
57225;SDS011;43082;43.568;22.256;2022-12-08T04:12:51;36.38;;;26.13;;
57225;SDS011;43082;43.568;22.256;2022-12-08T04:15:17;39.20;;;27.17;;
57225;SDS011;43082;43.568;22.256;2022-12-08T04:17:42;34.17;;;24.13;;
57225;SDS011;43082;43.568;22.256;2022-12-08T04:20:08;38.13;;;26.02;;
57225;SDS011;43082;43.568;22.256;2022-12-08T04:22:33;41.85;;;29.98;;
57225;SDS011;43082;43.568;22.256;2022-12-08T04:24:59;43.38;;;31.65;;
57225;SDS011;43082;43.568;22.256;2022-12-08T04:27:24;51.17;;;35.10;;
57225;SDS011;43082;43.568;22.256;2022-12-08T04:29:50;49.60;;;35.90;;
57225;SDS011;43082;43.568;22.256;2022-12-08T04:32:15;47.45;;;32.28;;
57225;SDS011;43082;43.568;22.256;2022-12-08T04:34:41;43.65;;;30.58;;
57225;SDS011;43082;43.568;22.256;2022-12-08T04:37:06;47.10;;;30.58;;
57225;SDS011;43082;43.568;22.256;2022-12-08T04:39:32;50.17;;;32.38;;
57225;SDS011;43082;43.568;22.256;2022-12-08T04:41:57;44.42;;;30.80;;
57225;SDS011;43082;43.568;22.256;2022-12-08T04:44:22;41.42;;;27.50;;
57225;SDS011;43082;43.568;22.256;2022-12-08T04:46:48;31.35;;;21.02;;
57225;SDS011;43082;43.568;22.256;2022-12-08T04:49:13;25.98;;;17.23;;
57225;SDS011;43082;43.568;22.256;2022-12-08T04:51:39;25.25;;;17.90;;
57225;SDS011;43082;43.568;22.256;2022-12-08T04:54:04;23.23;;;16.25;;
57225;SDS011;43082;43.568;22.256;2022-12-08T04:56:30;20.38;;;15.23;;
57225;SDS011;43082;43.568;22.256;2022-12-08T04:58:55;22.58;;;15.27;;
57225;SDS011;43082;43.568;22.256;2022-12-08T05:01:21;22.20;;;15.07;;
57225;SDS011;43082;43.568;22.256;2022-12-08T05:03:46;20.40;;;13.77;;
57225;SDS011;43082;43.568;22.256;2022-12-08T05:06:12;18.35;;;12.73;;
57225;SDS011;43082;43.568;22.256;2022-12-08T05:08:38;17.02;;;12.45;;
57225;SDS011;43082;43.568;22.256;2022-12-08T05:11:03;17.52;;;12.15;;
57225;SDS011;43082;43.568;22.256;2022-12-08T05:13:30;17.55;;;12.15;;
57225;SDS011;43082;43.568;22.256;2022-12-08T05:16:03;16.30;;;11.77;;
57225;SDS011;43082;43.568;22.256;2022-12-08T05:18:29;24.17;;;16.23;;
57225;SDS011;43082;43.568;22.256;2022-12-08T05:20:54;34.20;;;22.48;;
57225;SDS011;43082;43.568;22.256;2022-12-08T05:23:19;32.30;;;21.70;;
57225;SDS011;43082;43.568;22.256;2022-12-08T05:25:45;24.02;;;16.60;;
57225;SDS011;43082;43.568;22.256;2022-12-08T05:28:10;22.35;;;15.00;;
57225;SDS011;43082;43.568;22.256;2022-12-08T05:30:36;19.23;;;13.82;;
57225;SDS011;43082;43.568;22.256;2022-12-08T05:33:01;18.75;;;12.82;;
57225;SDS011;43082;43.568;22.256;2022-12-08T05:35:27;17.60;;;11.15;;
57225;SDS011;43082;43.568;22.256;2022-12-08T05:37:52;18.75;;;13.95;;
57225;SDS011;43082;43.568;22.256;2022-12-08T05:40:18;22.05;;;15.18;;
57225;SDS011;43082;43.568;22.256;2022-12-08T05:42:43;19.85;;;13.32;;
57225;SDS011;43082;43.568;22.256;2022-12-08T05:45:09;17.50;;;12.68;;
57225;SDS011;43082;43.568;22.256;2022-12-08T05:47:34;17.75;;;12.18;;
57225;SDS011;43082;43.568;22.256;2022-12-08T05:50:00;19.38;;;13.52;;
57225;SDS011;43082;43.568;22.256;2022-12-08T05:52:25;18.52;;;13.45;;
57225;SDS011;43082;43.568;22.256;2022-12-08T05:54:51;16.80;;;11.35;;
57225;SDS011;43082;43.568;22.256;2022-12-08T05:57:17;17.95;;;11.60;;
57225;SDS011;43082;43.568;22.256;2022-12-08T05:59:42;27.35;;;17.13;;
57225;SDS011;43082;43.568;22.256;2022-12-08T06:02:08;31.30;;;20.58;;
57225;SDS011;43082;43.568;22.256;2022-12-08T06:04:34;30.95;;;19.20;;
57225;SDS011;43082;43.568;22.256;2022-12-08T06:06:59;29.77;;;18.00;;
57225;SDS011;43082;43.568;22.256;2022-12-08T06:09:25;22.65;;;14.02;;
57225;SDS011;43082;43.568;22.256;2022-12-08T06:11:50;19.67;;;13.50;;
57225;SDS011;43082;43.568;22.256;2022-12-08T06:14:16;21.52;;;14.02;;
57225;SDS011;43082;43.568;22.256;2022-12-08T06:16:41;24.85;;;16.27;;
57225;SDS011;43082;43.568;22.256;2022-12-08T06:19:07;37.00;;;22.15;;
57225;SDS011;43082;43.568;22.256;2022-12-08T06:21:32;52.13;;;34.00;;
57225;SDS011;43082;43.568;22.256;2022-12-08T06:23:58;54.15;;;34.45;;
57225;SDS011;43082;43.568;22.256;2022-12-08T06:26:23;53.67;;;37.45;;
57225;SDS011;43082;43.568;22.256;2022-12-08T06:28:49;42.72;;;30.30;;
57225;SDS011;43082;43.568;22.256;2022-12-08T06:31:16;47.67;;;32.88;;
57225;SDS011;43082;43.568;22.256;2022-12-08T06:33:49;45.38;;;33.22;;
57225;SDS011;43082;43.568;22.256;2022-12-08T06:36:16;44.10;;;31.15;;
57225;SDS011;43082;43.568;22.256;2022-12-08T06:38:42;25.17;;;17.55;;
57225;SDS011;43082;43.568;22.256;2022-12-08T06:41:08;27.13;;;20.48;;
57225;SDS011;43082;43.568;22.256;2022-12-08T06:43:33;29.35;;;21.52;;
57225;SDS011;43082;43.568;22.256;2022-12-08T06:45:59;34.75;;;28.02;;
57225;SDS011;43082;43.568;22.256;2022-12-08T06:48:25;29.92;;;24.52;;
57225;SDS011;43082;43.568;22.256;2022-12-08T06:50:51;32.65;;;25.80;;
57225;SDS011;43082;43.568;22.256;2022-12-08T06:53:16;24.75;;;19.50;;
57225;SDS011;43082;43.568;22.256;2022-12-08T06:55:46;19.92;;;14.90;;
57225;SDS011;43082;43.568;22.256;2022-12-08T06:58:15;19.95;;;15.55;;
57225;SDS011;43082;43.568;22.256;2022-12-08T07:00:40;24.75;;;18.80;;
57225;SDS011;43082;43.568;22.256;2022-12-08T07:03:06;23.48;;;17.20;;
57225;SDS011;43082;43.568;22.256;2022-12-08T07:05:33;17.02;;;13.18;;
57225;SDS011;43082;43.568;22.256;2022-12-08T07:07:59;17.40;;;13.27;;
57225;SDS011;43082;43.568;22.256;2022-12-08T07:10:25;28.60;;;24.40;;
57225;SDS011;43082;43.568;22.256;2022-12-08T07:12:50;17.25;;;14.07;;
57225;SDS011;43082;43.568;22.256;2022-12-08T07:15:16;17.35;;;13.23;;
57225;SDS011;43082;43.568;22.256;2022-12-08T07:17:41;15.60;;;12.15;;
57225;SDS011;43082;43.568;22.256;2022-12-08T07:20:07;17.05;;;14.32;;
57225;SDS011;43082;43.568;22.256;2022-12-08T07:22:32;12.38;;;8.95;;
57225;SDS011;43082;43.568;22.256;2022-12-08T07:24:58;11.90;;;8.85;;
57225;SDS011;43082;43.568;22.256;2022-12-08T07:27:23;11.93;;;8.45;;
57225;SDS011;43082;43.568;22.256;2022-12-08T07:29:49;12.63;;;9.38;;
57225;SDS011;43082;43.568;22.256;2022-12-08T07:32:14;11.55;;;7.70;;
57225;SDS011;43082;43.568;22.256;2022-12-08T07:34:40;11.02;;;7.70;;
57225;SDS011;43082;43.568;22.256;2022-12-08T07:37:05;11.73;;;7.55;;
57225;SDS011;43082;43.568;22.256;2022-12-08T07:39:31;10.55;;;6.95;;
57225;SDS011;43082;43.568;22.256;2022-12-08T07:41:56;11.55;;;7.38;;
57225;SDS011;43082;43.568;22.256;2022-12-08T07:44:21;15.10;;;10.23;;
57225;SDS011;43082;43.568;22.256;2022-12-08T07:46:48;13.52;;;8.73;;
57225;SDS011;43082;43.568;22.256;2022-12-08T07:49:13;19.10;;;13.85;;
57225;SDS011;43082;43.568;22.256;2022-12-08T07:51:39;17.10;;;12.27;;
57225;SDS011;43082;43.568;22.256;2022-12-08T07:54:04;14.82;;;10.07;;
57225;SDS011;43082;43.568;22.256;2022-12-08T07:56:30;11.27;;;8.05;;
57225;SDS011;43082;43.568;22.256;2022-12-08T07:58:55;10.88;;;7.78;;
57225;SDS011;43082;43.568;22.256;2022-12-08T08:01:22;12.85;;;9.60;;
57225;SDS011;43082;43.568;22.256;2022-12-08T08:03:49;13.23;;;9.65;;
57225;SDS011;43082;43.568;22.256;2022-12-08T08:06:14;20.60;;;15.80;;
57225;SDS011;43082;43.568;22.256;2022-12-08T08:08:40;11.55;;;7.63;;
57225;SDS011;43082;43.568;22.256;2022-12-08T08:11:06;11.55;;;7.80;;
57225;SDS011;43082;43.568;22.256;2022-12-08T08:13:31;18.10;;;9.60;;
57225;SDS011;43082;43.568;22.256;2022-12-08T08:16:04;14.05;;;9.25;;
57225;SDS011;43082;43.568;22.256;2022-12-08T08:18:33;17.88;;;12.30;;
57225;SDS011;43082;43.568;22.256;2022-12-08T08:21:00;22.75;;;15.40;;
57225;SDS011;43082;43.568;22.256;2022-12-08T08:23:25;47.67;;;30.70;;
57225;SDS011;43082;43.568;22.256;2022-12-08T08:25:51;17.67;;;12.35;;
57225;SDS011;43082;43.568;22.256;2022-12-08T08:28:17;29.50;;;19.80;;
57225;SDS011;43082;43.568;22.256;2022-12-08T08:30:42;17.98;;;13.65;;
57225;SDS011;43082;43.568;22.256;2022-12-08T08:33:09;12.68;;;9.13;;
57225;SDS011;43082;43.568;22.256;2022-12-08T08:35:35;10.20;;;6.82;;
57225;SDS011;43082;43.568;22.256;2022-12-08T08:38:00;10.73;;;7.22;;
57225;SDS011;43082;43.568;22.256;2022-12-08T08:40:26;11.65;;;8.38;;
57225;SDS011;43082;43.568;22.256;2022-12-08T08:42:51;11.23;;;7.43;;
57225;SDS011;43082;43.568;22.256;2022-12-08T08:45:17;10.65;;;7.00;;
57225;SDS011;43082;43.568;22.256;2022-12-08T08:47:42;20.02;;;15.15;;
57225;SDS011;43082;43.568;22.256;2022-12-08T08:50:08;10.68;;;6.90;;
57225;SDS011;43082;43.568;22.256;2022-12-08T08:52:33;10.07;;;6.22;;
57225;SDS011;43082;43.568;22.256;2022-12-08T08:54:59;9.70;;;6.88;;
57225;SDS011;43082;43.568;22.256;2022-12-08T08:57:24;9.90;;;7.20;;
57225;SDS011;43082;43.568;22.256;2022-12-08T08:59:50;10.40;;;7.80;;
57225;SDS011;43082;43.568;22.256;2022-12-08T09:02:15;32.58;;;23.63;;
57225;SDS011;43082;43.568;22.256;2022-12-08T09:04:43;19.40;;;14.32;;
57225;SDS011;43082;43.568;22.256;2022-12-08T09:07:08;15.32;;;11.15;;
57225;SDS011;43082;43.568;22.256;2022-12-08T09:09:34;23.00;;;18.13;;
57225;SDS011;43082;43.568;22.256;2022-12-08T09:11:59;14.75;;;10.85;;
57225;SDS011;43082;43.568;22.256;2022-12-08T09:14:25;30.02;;;22.02;;
57225;SDS011;43082;43.568;22.256;2022-12-08T09:16:51;28.73;;;20.45;;
57225;SDS011;43082;43.568;22.256;2022-12-08T09:19:17;17.55;;;11.77;;
57225;SDS011;43082;43.568;22.256;2022-12-08T09:21:42;24.40;;;18.50;;
57225;SDS011;43082;43.568;22.256;2022-12-08T09:24:08;13.80;;;9.90;;
57225;SDS011;43082;43.568;22.256;2022-12-08T09:26:40;26.60;;;19.75;;
57225;SDS011;43082;43.568;22.256;2022-12-08T09:29:06;24.05;;;17.48;;
57225;SDS011;43082;43.568;22.256;2022-12-08T09:31:31;14.57;;;11.27;;
57225;SDS011;43082;43.568;22.256;2022-12-08T09:33:57;14.23;;;10.73;;
57225;SDS011;43082;43.568;22.256;2022-12-08T09:36:23;12.60;;;9.00;;
57225;SDS011;43082;43.568;22.256;2022-12-08T09:38:49;11.85;;;7.95;;
57225;SDS011;43082;43.568;22.256;2022-12-08T09:41:20;15.15;;;10.77;;
57225;SDS011;43082;43.568;22.256;2022-12-08T09:46:52;13.90;;;9.23;;
57225;SDS011;43082;43.568;22.256;2022-12-08T09:49:20;14.70;;;8.20;;
57225;SDS011;43082;43.568;22.256;2022-12-08T09:51:48;12.00;;;8.70;;
57225;SDS011;43082;43.568;22.256;2022-12-08T09:56:41;18.48;;;13.98;;
57225;SDS011;43082;43.568;22.256;2022-12-08T10:01:33;17.67;;;14.25;;
57225;SDS011;43082;43.568;22.256;2022-12-08T10:04:02;19.55;;;15.27;;
57225;SDS011;43082;43.568;22.256;2022-12-08T10:15:18;10.27;;;6.93;;
57225;SDS011;43082;43.568;22.256;2022-12-08T10:18:49;11.90;;;7.80;;
57225;SDS011;43082;43.568;22.256;2022-12-08T10:20:56;9.27;;;6.30;;
57225;SDS011;43082;43.568;22.256;2022-12-08T10:23:46;11.20;;;6.75;;
57225;SDS011;43082;43.568;22.256;2022-12-08T10:26:17;11.48;;;7.68;;
57225;SDS011;43082;43.568;22.256;2022-12-08T10:28:44;12.73;;;9.52;;
57225;SDS011;43082;43.568;22.256;2022-12-08T10:31:17;12.77;;;9.60;;
57225;SDS011;43082;43.568;22.256;2022-12-08T10:33:51;14.55;;;10.07;;
57225;SDS011;43082;43.568;22.256;2022-12-08T10:37:24;13.93;;;9.07;;
57225;SDS011;43082;43.568;22.256;2022-12-08T10:44:31;19.58;;;13.10;;
57225;SDS011;43082;43.568;22.256;2022-12-08T10:46:56;18.00;;;12.98;;
57225;SDS011;43082;43.568;22.256;2022-12-08T10:49:26;14.75;;;10.07;;
57225;SDS011;43082;43.568;22.256;2022-12-08T10:51:53;17.92;;;12.77;;
57225;SDS011;43082;43.568;22.256;2022-12-08T10:54:26;22.80;;;15.98;;
57225;SDS011;43082;43.568;22.256;2022-12-08T10:56:53;19.27;;;13.82;;
57225;SDS011;43082;43.568;22.256;2022-12-08T10:59:19;13.35;;;9.75;;
57225;SDS011;43082;43.568;22.256;2022-12-08T11:01:46;14.15;;;11.20;;
57225;SDS011;43082;43.568;22.256;2022-12-08T11:04:17;12.27;;;9.43;;
57225;SDS011;43082;43.568;22.256;2022-12-08T11:06:44;18.98;;;15.25;;
57225;SDS011;43082;43.568;22.256;2022-12-08T11:14:36;16.90;;;13.88;;
57225;SDS011;43082;43.568;22.256;2022-12-08T11:17:14;22.42;;;20.13;;
57225;SDS011;43082;43.568;22.256;2022-12-08T11:19:42;26.15;;;23.55;;
57225;SDS011;43082;43.568;22.256;2022-12-08T11:22:31;25.85;;;23.13;;
57225;SDS011;43082;43.568;22.256;2022-12-08T11:24:58;19.85;;;15.75;;
57225;SDS011;43082;43.568;22.256;2022-12-08T11:27:24;15.77;;;12.18;;
57225;SDS011;43082;43.568;22.256;2022-12-08T11:29:49;17.73;;;14.60;;
57225;SDS011;43082;43.568;22.256;2022-12-08T11:32:15;12.13;;;9.38;;
57225;SDS011;43082;43.568;22.256;2022-12-08T11:35:01;13.48;;;9.88;;
57225;SDS011;43082;43.568;22.256;2022-12-08T11:39:59;11.27;;;8.23;;
57225;SDS011;43082;43.568;22.256;2022-12-08T11:42:33;10.45;;;7.03;;
57225;SDS011;43082;43.568;22.256;2022-12-08T11:45:06;13.65;;;9.60;;
57225;SDS011;43082;43.568;22.256;2022-12-08T11:47:36;10.23;;;7.28;;
57225;SDS011;43082;43.568;22.256;2022-12-08T11:52:42;17.23;;;11.30;;
57225;SDS011;43082;43.568;22.256;2022-12-08T11:57:50;23.63;;;18.40;;
57225;SDS011;43082;43.568;22.256;2022-12-08T12:00:16;20.00;;;14.40;;
57225;SDS011;43082;43.568;22.256;2022-12-08T12:02:47;12.20;;;8.15;;
57225;SDS011;43082;43.568;22.256;2022-12-08T12:17:24;11.52;;;8.13;;
57225;SDS011;43082;43.568;22.256;2022-12-08T12:20:08;13.20;;;7.63;;
57225;SDS011;43082;43.568;22.256;2022-12-08T12:22:38;12.95;;;9.32;;
57225;SDS011;43082;43.568;22.256;2022-12-08T12:25:04;12.27;;;8.07;;
57225;SDS011;43082;43.568;22.256;2022-12-08T12:27:37;12.70;;;8.80;;
57225;SDS011;43082;43.568;22.256;2022-12-08T12:30:05;12.50;;;9.43;;
57225;SDS011;43082;43.568;22.256;2022-12-08T12:32:43;13.43;;;9.93;;
57225;SDS011;43082;43.568;22.256;2022-12-08T12:35:15;10.98;;;6.38;;
57225;SDS011;43082;43.568;22.256;2022-12-08T12:37:45;17.53;;;13.70;;
57225;SDS011;43082;43.568;22.256;2022-12-08T12:40:17;15.30;;;10.57;;
57225;SDS011;43082;43.568;22.256;2022-12-08T12:42:45;10.30;;;7.03;;
57225;SDS011;43082;43.568;22.256;2022-12-08T13:00:47;10.40;;;7.32;;
57225;SDS011;43082;43.568;22.256;2022-12-08T13:03:13;8.85;;;5.95;;
57225;SDS011;43082;43.568;22.256;2022-12-08T13:05:50;8.77;;;5.47;;
57225;SDS011;43082;43.568;22.256;2022-12-08T13:08:22;9.07;;;6.15;;
57225;SDS011;43082;43.568;22.256;2022-12-08T13:11:02;8.27;;;5.55;;
57225;SDS011;43082;43.568;22.256;2022-12-08T13:13:30;12.75;;;7.47;;
57225;SDS011;43082;43.568;22.256;2022-12-08T13:18:40;18.60;;;12.82;;
57225;SDS011;43082;43.568;22.256;2022-12-08T13:26:09;16.70;;;11.32;;
57225;SDS011;43082;43.568;22.256;2022-12-08T13:29:03;21.60;;;16.15;;
57225;SDS011;43082;43.568;22.256;2022-12-08T13:36:48;18.73;;;13.15;;
57225;SDS011;43082;43.568;22.256;2022-12-08T13:39:19;15.93;;;10.50;;
57225;SDS011;43082;43.568;22.256;2022-12-08T13:41:51;15.88;;;10.95;;
57225;SDS011;43082;43.568;22.256;2022-12-08T13:44:23;11.43;;;7.53;;
57225;SDS011;43082;43.568;22.256;2022-12-08T13:46:54;12.95;;;7.35;;
57225;SDS011;43082;43.568;22.256;2022-12-08T13:49:23;10.73;;;6.13;;
57225;SDS011;43082;43.568;22.256;2022-12-08T13:51:51;15.15;;;10.23;;
57225;SDS011;43082;43.568;22.256;2022-12-08T13:54:32;12.88;;;8.90;;
57225;SDS011;43082;43.568;22.256;2022-12-08T13:57:01;15.75;;;11.80;;
57225;SDS011;43082;43.568;22.256;2022-12-08T13:59:28;18.05;;;13.82;;
57225;SDS011;43082;43.568;22.256;2022-12-08T14:02:12;27.77;;;19.17;;
57225;SDS011;43082;43.568;22.256;2022-12-08T14:04:45;24.85;;;18.02;;
57225;SDS011;43082;43.568;22.256;2022-12-08T14:07:13;30.48;;;24.70;;
57225;SDS011;43082;43.568;22.256;2022-12-08T14:09:39;22.83;;;17.65;;
57225;SDS011;43082;43.568;22.256;2022-12-08T14:12:07;18.80;;;13.02;;
57225;SDS011;43082;43.568;22.256;2022-12-08T14:14:44;19.73;;;13.90;;
57225;SDS011;43082;43.568;22.256;2022-12-08T14:17:12;21.05;;;17.33;;
57225;SDS011;43082;43.568;22.256;2022-12-08T14:20:47;22.52;;;16.88;;
57225;SDS011;43082;43.568;22.256;2022-12-08T14:22:48;17.92;;;13.30;;
57225;SDS011;43082;43.568;22.256;2022-12-08T14:25:15;17.10;;;13.18;;
57225;SDS011;43082;43.568;22.256;2022-12-08T14:27:41;16.88;;;11.43;;
57225;SDS011;43082;43.568;22.256;2022-12-08T14:30:30;16.92;;;9.73;;
57225;SDS011;43082;43.568;22.256;2022-12-08T14:32:57;18.45;;;12.15;;
57225;SDS011;43082;43.568;22.256;2022-12-08T14:35:24;36.00;;;27.40;;
57225;SDS011;43082;43.568;22.256;2022-12-08T14:37:59;25.65;;;18.27;;
57225;SDS011;43082;43.568;22.256;2022-12-08T14:40:32;35.47;;;29.63;;
57225;SDS011;43082;43.568;22.256;2022-12-08T14:48:22;36.40;;;28.83;;
57225;SDS011;43082;43.568;22.256;2022-12-08T14:53:20;41.80;;;33.90;;
57225;SDS011;43082;43.568;22.256;2022-12-08T14:55:46;38.95;;;34.72;;
57225;SDS011;43082;43.568;22.256;2022-12-08T14:58:16;42.83;;;37.50;;
57225;SDS011;43082;43.568;22.256;2022-12-08T15:00:45;35.45;;;30.13;;
57225;SDS011;43082;43.568;22.256;2022-12-08T15:03:12;68.63;;;61.15;;
57225;SDS011;43082;43.568;22.256;2022-12-08T15:05:38;57.20;;;49.95;;
57225;SDS011;43082;43.568;22.256;2022-12-08T15:08:04;44.47;;;35.13;;
57225;SDS011;43082;43.568;22.256;2022-12-08T15:10:31;47.25;;;36.45;;
57225;SDS011;43082;43.568;22.256;2022-12-08T15:15:53;49.40;;;41.72;;
57225;SDS011;43082;43.568;22.256;2022-12-08T15:21:00;26.77;;;21.20;;
57225;SDS011;43082;43.568;22.256;2022-12-08T15:23:31;25.05;;;19.13;;
57225;SDS011;43082;43.568;22.256;2022-12-08T15:26:02;60.35;;;42.25;;
57225;SDS011;43082;43.568;22.256;2022-12-08T15:28:28;21.13;;;14.43;;
57225;SDS011;43082;43.568;22.256;2022-12-08T15:30:54;20.77;;;14.00;;
57225;SDS011;43082;43.568;22.256;2022-12-08T15:33:20;24.27;;;16.90;;
57225;SDS011;43082;43.568;22.256;2022-12-08T15:35:47;22.02;;;14.85;;
57225;SDS011;43082;43.568;22.256;2022-12-08T15:38:18;17.35;;;12.20;;
57225;SDS011;43082;43.568;22.256;2022-12-08T15:40:53;19.67;;;12.65;;
57225;SDS011;43082;43.568;22.256;2022-12-08T15:43:19;16.52;;;12.00;;
57225;SDS011;43082;43.568;22.256;2022-12-08T15:45:45;37.63;;;29.42;;
57225;SDS011;43082;43.568;22.256;2022-12-08T15:48:17;42.35;;;32.20;;
57225;SDS011;43082;43.568;22.256;2022-12-08T15:50:45;58.92;;;41.97;;
57225;SDS011;43082;43.568;22.256;2022-12-08T15:53:11;44.88;;;34.47;;
57225;SDS011;43082;43.568;22.256;2022-12-08T15:55:37;59.08;;;42.78;;
57225;SDS011;43082;43.568;22.256;2022-12-08T15:58:03;41.75;;;28.38;;
57225;SDS011;43082;43.568;22.256;2022-12-08T16:00:29;67.97;;;51.90;;
57225;SDS011;43082;43.568;22.256;2022-12-08T16:02:57;73.80;;;52.47;;
57225;SDS011;43082;43.568;22.256;2022-12-08T16:05:23;63.25;;;45.65;;
57225;SDS011;43082;43.568;22.256;2022-12-08T16:07:49;69.93;;;51.45;;
57225;SDS011;43082;43.568;22.256;2022-12-08T16:10:15;61.97;;;48.05;;
57225;SDS011;43082;43.568;22.256;2022-12-08T16:12:42;54.65;;;41.90;;
57225;SDS011;43082;43.568;22.256;2022-12-08T16:15:26;45.65;;;34.47;;
57225;SDS011;43082;43.568;22.256;2022-12-08T16:17:52;64.30;;;48.70;;